createdAt,value
2019-01-10T00:00:08.261Z,0
2019-01-10T00:01:07.671Z,0
2019-01-10T00:02:09.084Z,0
2019-01-10T00:03:09.217Z,0
2019-01-10T00:04:10.621Z,0
2019-01-10T00:05:11.097Z,0
2019-01-10T00:06:11.231Z,0
2019-01-10T00:07:12.363Z,0
2019-01-10T00:08:13.047Z,0
2019-01-10T00:09:13.455Z,0
2019-01-10T00:10:15.763Z,0
2019-01-10T00:11:16.744Z,0
2019-01-10T00:12:17.441Z,0
2019-01-10T00:13:18.127Z,0
2019-01-10T00:14:19.089Z,0
2019-01-10T00:15:19.951Z,0
2019-01-10T00:16:20.917Z,0
2019-01-10T00:17:21.429Z,0
2019-01-10T00:18:22.558Z,0
2019-01-10T00:19:23.692Z,0
2019-01-10T00:20:24.654Z,0
2019-01-10T00:21:24.787Z,0
2019-01-10T00:22:26.285Z,0
2019-01-10T00:23:26.506Z,0
2019-01-10T00:24:26.916Z,0
2019-01-10T00:25:27.171Z,0
2019-01-10T00:26:27.577Z,0
2019-01-10T00:27:28.709Z,0
2019-01-10T00:28:30.120Z,0
2019-01-10T00:29:30.839Z,0
2019-01-10T00:30:31.530Z,0
2019-01-10T00:31:32.215Z,0
2019-01-10T00:32:33.181Z,0
2019-01-10T00:33:33.589Z,0
2019-01-10T00:34:34.549Z,0
2019-01-10T00:35:34.086Z,0
2019-01-10T00:36:35.495Z,0
2019-01-10T00:37:35.626Z,0
2019-01-10T00:38:36.111Z,0
2019-01-10T00:39:36.801Z,0
2019-01-10T00:40:37.756Z,0
2019-01-10T00:41:38.734Z,0
2019-01-10T00:42:48.696Z,0
2019-01-10T00:42:52.050Z,0
2019-01-10T00:43:51.863Z,0
2019-01-10T00:44:53.017Z,0
2019-01-10T00:45:54.147Z,0
2019-01-10T00:46:55.835Z,0
2019-01-10T00:47:56.341Z,0
2019-01-10T00:48:56.475Z,0
2019-01-10T00:49:56.893Z,0
2019-01-10T00:50:57.583Z,0
2019-01-10T00:51:57.991Z,0
2019-01-10T00:52:58.678Z,0
2019-01-10T00:53:59.790Z,0
2019-01-10T00:55:01.162Z,0
2019-01-10T00:56:02.176Z,0
2019-01-10T00:57:03.422Z,0
2019-01-10T00:58:03.830Z,0
2019-01-10T00:59:05.351Z,0
2019-01-10T01:00:05.039Z,0
2019-01-10T01:01:05.560Z,0
2019-01-10T01:02:06.527Z,0
2019-01-10T01:03:07.214Z,0
2019-01-10T01:04:07.759Z,0
2019-01-10T01:05:08.449Z,0
2019-01-10T01:06:08.583Z,0
2019-01-10T01:07:09.272Z,0
2019-01-10T01:08:09.398Z,0
2019-01-10T01:09:10.532Z,0
2019-01-10T01:10:11.497Z,0
2019-01-10T01:11:12.184Z,0
2019-01-10T01:12:12.670Z,0
2019-01-10T01:13:13.082Z,0
2019-01-10T01:14:15.026Z,0
2019-01-10T01:15:14.989Z,0
2019-01-10T01:16:15.499Z,0
2019-01-10T01:17:17.612Z,0
2019-01-10T01:18:19.029Z,0
2019-01-10T01:19:19.159Z,0
2019-01-10T01:20:19.845Z,0
2019-01-10T01:21:20.355Z,0
2019-01-10T01:22:20.762Z,0
2019-01-10T01:23:21.172Z,0
2019-01-10T01:24:21.723Z,0
2019-01-10T01:25:23.524Z,0
2019-01-10T01:26:22.658Z,0
2019-01-10T01:27:23.624Z,0
2019-01-10T01:28:24.312Z,0
2019-01-10T01:29:25.103Z,0
2019-01-10T01:30:26.211Z,0
2019-01-10T01:31:26.900Z,0
2019-01-10T01:32:27.585Z,0
2019-01-10T01:33:28.556Z,0
2019-01-10T01:34:28.661Z,0
2019-01-10T01:35:29.354Z,0
2019-01-10T01:36:30.486Z,0
2019-01-10T01:37:31.615Z,0
2019-01-10T01:38:32.744Z,0
2019-01-10T01:39:33.877Z,0
2019-01-10T01:40:35.283Z,0
2019-01-10T01:41:35.972Z,0
2019-01-10T01:42:36.379Z,0
2019-01-10T01:43:37.355Z,0
2019-01-10T01:44:37.607Z,0
2019-01-10T01:45:38.013Z,0
2019-01-10T01:46:38.981Z,0
2019-01-10T01:47:39.666Z,0
2019-01-10T01:48:40.079Z,0
2019-01-10T01:49:41.048Z,0
2019-01-10T01:50:41.459Z,0
2019-01-10T01:51:42.714Z,0
2019-01-10T01:52:43.122Z,0
2019-01-10T01:53:43.254Z,0
2019-01-10T01:54:44.071Z,0
2019-01-10T01:55:44.205Z,0
2019-01-10T01:56:45.614Z,0
2019-01-10T01:57:46.308Z,0
2019-01-10T01:58:47.553Z,0
2019-01-10T01:59:47.964Z,0
2019-01-10T02:00:48.651Z,0
2019-01-10T02:01:49.067Z,0
2019-01-10T02:02:49.201Z,0
2019-01-10T02:03:50.440Z,0
2019-01-10T02:04:51.273Z,0
2019-01-10T02:05:51.681Z,0
2019-01-10T02:06:51.812Z,0
2019-01-10T02:07:52.534Z,0
2019-01-10T02:08:53.790Z,0
2019-01-10T02:09:54.471Z,0
2019-01-10T02:10:55.716Z,0
2019-01-10T02:11:56.401Z,0
2019-01-10T02:12:56.533Z,0
2019-01-10T02:13:57.505Z,0
2019-01-10T02:14:58.267Z,0
2019-01-10T02:15:58.400Z,0
2019-01-10T02:16:59.808Z,0
2019-01-10T02:18:00.769Z,0
2019-01-10T02:19:02.453Z,0
2019-01-10T02:20:03.699Z,0
2019-01-10T02:21:03.387Z,0
2019-01-10T02:22:04.632Z,0
2019-01-10T02:23:05.042Z,0
2019-01-10T02:24:06.020Z,0
2019-01-10T02:25:06.143Z,0
2019-01-10T02:26:07.108Z,0
2019-01-10T02:27:07.314Z,0
2019-01-10T02:28:08.283Z,0
2019-01-10T02:29:08.968Z,0
2019-01-10T02:30:10.487Z,0
2019-01-10T02:31:10.740Z,0
2019-01-10T02:32:11.152Z,0
2019-01-10T02:33:11.838Z,0
2019-01-10T02:34:13.104Z,0
2019-01-10T02:35:14.061Z,0
2019-01-10T02:36:14.828Z,0
2019-01-10T02:37:15.079Z,0
2019-01-10T02:38:15.774Z,0
2019-01-10T02:39:16.903Z,0
2019-01-10T02:40:17.888Z,0
2019-01-10T02:41:18.581Z,0
2019-01-10T02:42:19.840Z,0
2019-01-10T02:43:32.437Z,0
2019-01-10T02:44:32.907Z,0
2019-01-10T02:45:33.321Z,0
2019-01-10T02:46:33.448Z,0
2019-01-10T02:47:35.460Z,0
2019-01-10T02:48:35.430Z,0
2019-01-10T02:49:36.674Z,0
2019-01-10T02:50:37.660Z,0
2019-01-10T02:51:37.925Z,0
2019-01-10T02:52:38.612Z,0
2019-01-10T02:53:39.393Z,0
2019-01-10T02:54:40.787Z,0
2019-01-10T02:55:41.473Z,0
2019-01-10T02:56:41.207Z,0
2019-01-10T02:57:41.625Z,0
2019-01-10T02:58:42.648Z,0
2019-01-10T02:59:43.905Z,0
2019-01-10T03:00:43.616Z,0
2019-01-10T03:01:44.680Z,0
2019-01-10T03:02:45.650Z,0
2019-01-10T03:03:46.642Z,0
2019-01-10T03:04:47.751Z,0
2019-01-10T03:05:49.275Z,0
2019-01-10T03:06:49.271Z,0
2019-01-10T03:07:50.261Z,0
2019-01-10T03:08:51.063Z,0
2019-01-10T03:09:51.478Z,0
2019-01-10T03:10:52.165Z,0
2019-01-10T03:11:53.696Z,0
2019-01-10T03:12:54.674Z,0
2019-01-10T03:13:54.645Z,0
2019-01-10T03:14:56.036Z,0
2019-01-10T03:15:56.449Z,0
2019-01-10T03:16:58.417Z,0
2019-01-10T03:17:58.393Z,0
2019-01-10T03:18:59.362Z,0
2019-01-10T03:19:59.779Z,0
2019-01-10T03:21:01.364Z,0
2019-01-10T03:22:01.334Z,0
2019-01-10T03:23:02.019Z,0
2019-01-10T03:24:02.545Z,0
2019-01-10T03:25:03.527Z,0
2019-01-10T03:26:03.499Z,0
2019-01-10T03:27:04.478Z,0
2019-01-10T03:28:04.721Z,0
2019-01-10T03:29:05.243Z,0
2019-01-10T03:30:05.486Z,0
2019-01-10T03:31:07.359Z,0
2019-01-10T03:32:06.563Z,0
2019-01-10T03:33:08.134Z,0
2019-01-10T03:34:08.405Z,0
2019-01-10T03:35:08.806Z,0
2019-01-10T03:36:09.213Z,0
2019-01-10T03:37:09.632Z,0
2019-01-10T03:38:10.319Z,0
2019-01-10T03:39:11.012Z,0
2019-01-10T03:40:12.997Z,0
2019-01-10T03:41:14.250Z,0
2019-01-10T03:42:15.508Z,0
2019-01-10T03:43:16.004Z,0
2019-01-10T03:44:16.967Z,0
2019-01-10T03:45:17.368Z,0
2019-01-10T03:46:18.065Z,0
2019-01-10T03:47:18.750Z,0
2019-01-10T03:48:19.717Z,0
2019-01-10T03:49:20.242Z,0
2019-01-10T03:50:20.649Z,0
2019-01-10T03:51:21.781Z,0
2019-01-10T03:52:22.769Z,0
2019-01-10T03:53:23.455Z,0
2019-01-10T03:54:24.555Z,0
2019-01-10T03:55:25.146Z,0
2019-01-10T03:56:25.939Z,0
2019-01-10T03:57:26.904Z,0
2019-01-10T03:58:27.599Z,0
2019-01-10T03:59:28.106Z,0
2019-01-10T04:00:29.075Z,0
2019-01-10T04:01:29.737Z,0
2019-01-10T04:02:31.256Z,0
2019-01-10T04:03:31.223Z,0
2019-01-10T04:04:31.925Z,0
2019-01-10T04:05:32.321Z,0
2019-01-10T04:06:33.125Z,0
2019-01-10T04:07:33.810Z,0
2019-01-10T04:08:34.777Z,0
2019-01-10T04:09:35.745Z,0
2019-01-10T04:10:36.183Z,0
2019-01-10T04:11:37.172Z,0
2019-01-10T04:12:38.422Z,0
2019-01-10T04:13:37.855Z,0
2019-01-10T04:14:39.537Z,0
2019-01-10T04:15:39.634Z,0
2019-01-10T04:16:40.323Z,0
2019-01-10T04:17:42.120Z,0
2019-01-10T04:18:42.385Z,0
2019-01-10T04:19:43.638Z,0
2019-01-10T04:20:44.045Z,0
2019-01-10T04:21:45.314Z,0
2019-01-10T04:22:46.130Z,0
2019-01-10T04:23:46.377Z,0
2019-01-10T04:24:46.616Z,0
2019-01-10T04:25:46.900Z,0
2019-01-10T04:26:48.145Z,0
2019-01-10T04:27:48.917Z,0
2019-01-10T04:28:49.877Z,0
2019-01-10T04:29:51.121Z,0
2019-01-10T04:30:52.246Z,0
2019-01-10T04:31:52.772Z,0
2019-01-10T04:32:53.740Z,0
2019-01-10T04:33:54.156Z,0
2019-01-10T04:34:55.122Z,0
2019-01-10T04:35:56.548Z,0
2019-01-10T04:36:57.795Z,0
2019-01-10T04:37:59.055Z,0
2019-01-10T04:38:59.574Z,0
2019-01-10T04:39:59.543Z,0
2019-01-10T04:41:00.354Z,0
2019-01-10T04:42:01.042Z,0
2019-01-10T04:43:01.728Z,4
2019-01-10T04:44:08.789Z,0
2019-01-10T04:44:13.881Z,0
2019-01-10T04:45:14.261Z,0
2019-01-10T04:46:15.674Z,0
2019-01-10T04:47:17.359Z,0
2019-01-10T04:48:17.498Z,0
2019-01-10T04:49:17.908Z,0
2019-01-10T04:50:18.881Z,0
2019-01-10T04:51:19.447Z,0
2019-01-10T04:52:20.149Z,0
2019-01-10T04:53:21.126Z,0
2019-01-10T04:54:21.258Z,0
2019-01-10T04:55:21.935Z,0
2019-01-10T04:56:22.627Z,0
2019-01-10T04:57:22.763Z,0
2019-01-10T04:58:23.454Z,0
2019-01-10T04:59:23.862Z,0
2019-01-10T05:00:25.590Z,0
2019-01-10T05:01:25.860Z,0
2019-01-10T05:02:26.273Z,0
2019-01-10T05:03:27.653Z,0
2019-01-10T05:04:28.646Z,0
2019-01-10T05:05:29.258Z,0
2019-01-10T05:06:30.600Z,0
2019-01-10T05:07:30.562Z,0
2019-01-10T05:08:31.248Z,0
2019-01-10T05:09:31.665Z,0
2019-01-10T05:10:32.923Z,0
2019-01-10T05:11:33.741Z,0
2019-01-10T05:12:34.255Z,0
2019-01-10T05:13:34.945Z,0
2019-01-10T05:14:35.992Z,0
2019-01-10T05:15:37.087Z,0
2019-01-10T05:16:37.493Z,0
2019-01-10T05:17:38.504Z,0
2019-01-10T05:18:40.024Z,0
2019-01-10T05:19:40.816Z,0
2019-01-10T05:20:41.531Z,0
2019-01-10T05:21:42.493Z,0
2019-01-10T05:22:42.901Z,0
2019-01-10T05:23:43.593Z,0
2019-01-10T05:24:44.293Z,0
2019-01-10T05:25:44.500Z,0
2019-01-10T05:26:44.912Z,0
2019-01-10T05:27:45.598Z,0
2019-01-10T05:28:46.123Z,0
2019-01-10T05:29:47.375Z,0
2019-01-10T05:30:46.783Z,0
2019-01-10T05:31:47.835Z,0
2019-01-10T05:32:48.813Z,0
2019-01-10T05:33:48.877Z,0
2019-01-10T05:34:50.393Z,0
2019-01-10T05:35:50.031Z,0
2019-01-10T05:36:50.442Z,0
2019-01-10T05:37:51.142Z,0
2019-01-10T05:38:51.830Z,0
2019-01-10T05:39:53.354Z,0
2019-01-10T05:40:53.487Z,0
2019-01-10T05:41:54.743Z,0
2019-01-10T05:42:55.771Z,0
2019-01-10T05:43:56.740Z,0
2019-01-10T05:44:56.867Z,0
2019-01-10T05:45:58.310Z,0
2019-01-10T05:46:59.003Z,0
2019-01-10T05:47:59.967Z,0
2019-01-10T05:49:00.980Z,0
2019-01-10T05:50:01.952Z,0
2019-01-10T05:51:01.651Z,0
2019-01-10T05:52:02.684Z,0
2019-01-10T05:53:03.005Z,0
2019-01-10T05:54:03.649Z,0
2019-01-10T05:55:04.062Z,0
2019-01-10T05:56:04.470Z,0
2019-01-10T05:57:05.163Z,0
2019-01-10T05:58:06.217Z,0
2019-01-10T05:59:06.348Z,0
2019-01-10T06:00:07.476Z,0
2019-01-10T06:01:08.446Z,0
2019-01-10T06:02:08.862Z,0
2019-01-10T06:03:09.272Z,0
2019-01-10T06:04:09.955Z,0
2019-01-10T06:05:12.017Z,0
2019-01-10T06:06:13.408Z,0
2019-01-10T06:07:13.816Z,0
2019-01-10T06:08:13.949Z,0
2019-01-10T06:09:14.638Z,0
2019-01-10T06:10:15.328Z,0
2019-01-10T06:11:16.010Z,0
2019-01-10T06:12:15.697Z,0
2019-01-10T06:13:17.221Z,0
2019-01-10T06:14:17.459Z,0
2019-01-10T06:15:17.703Z,0
2019-01-10T06:16:17.898Z,0
2019-01-10T06:17:18.864Z,0
2019-01-10T06:18:19.552Z,0
2019-01-10T06:19:31.989Z,0
2019-01-10T06:20:33.099Z,0
2019-01-10T06:21:34.370Z,0
2019-01-10T06:22:34.334Z,0
2019-01-10T06:23:35.020Z,0
2019-01-10T06:24:34.991Z,0
2019-01-10T06:25:35.676Z,0
2019-01-10T06:26:36.654Z,0
2019-01-10T06:27:36.785Z,0
2019-01-10T06:28:38.474Z,0
2019-01-10T06:29:39.173Z,0
2019-01-10T06:30:39.988Z,0
2019-01-10T06:31:41.117Z,0
2019-01-10T06:32:43.240Z,4
2019-01-10T06:33:43.924Z,4
2019-01-10T06:34:43.894Z,4
2019-01-10T06:35:44.577Z,0
2019-01-10T06:36:44.990Z,0
2019-01-10T06:37:46.008Z,4
2019-01-10T06:38:46.140Z,4
2019-01-10T06:39:46.828Z,4
2019-01-10T06:40:47.678Z,4
2019-01-10T06:41:48.368Z,8
2019-01-10T06:42:48.498Z,4
2019-01-10T06:43:49.637Z,8
2019-01-10T06:44:50.603Z,8
2019-01-10T06:45:51.290Z,12
2019-01-10T06:46:50.979Z,12
2019-01-10T06:47:51.690Z,12
2019-01-10T06:48:52.655Z,12
2019-01-10T06:49:53.347Z,16
2019-01-10T06:50:54.716Z,16
2019-01-10T06:51:55.126Z,20
2019-01-10T06:52:56.732Z,24
2019-01-10T06:53:56.980Z,28
2019-01-10T06:54:58.456Z,28
2019-01-10T06:55:58.867Z,32
2019-01-10T06:56:58.998Z,36
2019-01-10T06:58:00.107Z,44
2019-01-10T06:59:00.794Z,44
2019-01-10T07:00:01.930Z,52
2019-01-10T07:01:03.132Z,60
2019-01-10T07:02:03.267Z,64
2019-01-10T07:03:04.272Z,68
2019-01-10T07:04:04.968Z,72
2019-01-10T07:05:05.658Z,84
2019-01-10T07:06:06.068Z,92
2019-01-10T07:07:07.594Z,100
2019-01-10T07:08:08.562Z,112
2019-01-10T07:09:09.266Z,124
2019-01-10T07:10:09.964Z,136
2019-01-10T07:11:10.506Z,148
2019-01-10T07:12:11.634Z,152
2019-01-10T07:13:12.601Z,168
2019-01-10T07:14:13.290Z,180
2019-01-10T07:15:13.702Z,192
2019-01-10T07:16:14.844Z,208
2019-01-10T07:17:17.895Z,220
2019-01-10T07:18:17.581Z,232
2019-01-10T07:19:18.995Z,244
2019-01-10T07:20:20.408Z,256
2019-01-10T07:21:21.687Z,260
2019-01-10T07:22:22.095Z,268
2019-01-10T07:23:22.507Z,276
2019-01-10T07:24:22.925Z,280
2019-01-10T07:25:23.631Z,288
2019-01-10T07:26:25.040Z,296
2019-01-10T07:27:26.007Z,304
2019-01-10T07:28:26.422Z,312
2019-01-10T07:29:27.134Z,328
2019-01-10T07:30:40.291Z,336
2019-01-10T07:31:40.827Z,344
2019-01-10T07:32:41.422Z,356
2019-01-10T07:33:41.831Z,376
2019-01-10T07:34:43.527Z,396
2019-01-10T07:35:44.224Z,412
2019-01-10T07:36:46.400Z,420
2019-01-10T07:37:45.647Z,436
2019-01-10T07:38:46.062Z,452
2019-01-10T07:39:46.756Z,452
2019-01-10T07:40:47.009Z,476
2019-01-10T07:41:47.124Z,496
2019-01-10T07:42:47.829Z,512
2019-01-10T07:43:48.255Z,536
2019-01-10T07:44:49.772Z,552
2019-01-10T07:45:50.711Z,572
2019-01-10T07:46:51.490Z,596
2019-01-10T07:47:53.186Z,588
2019-01-10T07:48:53.601Z,620
2019-01-10T07:49:53.757Z,668
2019-01-10T07:50:54.172Z,708
2019-01-10T07:51:55.824Z,756
2019-01-10T07:52:56.322Z,780
2019-01-10T07:53:56.454Z,804
2019-01-10T07:54:56.919Z,832
2019-01-10T07:55:57.891Z,852
2019-01-10T07:56:58.861Z,876
2019-01-10T07:57:59.008Z,904
2019-01-10T07:59:00.143Z,928
2019-01-10T08:00:01.656Z,972
2019-01-10T08:01:03.232Z,980
2019-01-10T08:02:03.071Z,952
2019-01-10T08:03:03.769Z,984
2019-01-10T08:04:04.465Z,996
2019-01-10T08:05:05.254Z,992
2019-01-10T08:06:06.392Z,984
2019-01-10T08:07:08.083Z,976
2019-01-10T08:08:08.619Z,972
2019-01-10T08:09:09.034Z,1004
2019-01-10T08:10:10.724Z,1068
2019-01-10T08:11:11.134Z,1112
2019-01-10T08:12:12.230Z,1128
2019-01-10T08:13:13.368Z,1144
2019-01-10T08:14:14.779Z,1172
2019-01-10T08:15:15.267Z,1220
2019-01-10T08:16:16.401Z,1244
2019-01-10T08:17:18.597Z,1320
2019-01-10T08:18:19.010Z,1364
2019-01-10T08:19:19.978Z,1404
2019-01-10T08:20:20.673Z,1412
2019-01-10T08:21:21.364Z,1388
2019-01-10T08:22:34.932Z,1380
2019-01-10T08:23:36.051Z,1364
2019-01-10T08:24:36.474Z,1308
2019-01-10T08:25:43.187Z,1252
2019-01-10T08:25:53.852Z,1244
2019-01-10T08:26:06.454Z,1244
2019-01-10T08:27:03.268Z,1240
2019-01-10T08:28:04.268Z,1260
2019-01-10T08:29:04.232Z,1292
2019-01-10T08:30:04.926Z,1324
2019-01-10T08:31:05.338Z,1364
2019-01-10T08:32:06.780Z,1404
2019-01-10T08:33:07.758Z,1472
2019-01-10T08:34:08.446Z,1504
2019-01-10T08:35:08.860Z,1556
2019-01-10T08:36:09.827Z,1588
2019-01-10T08:37:12.495Z,1616
2019-01-10T08:38:11.194Z,1700
2019-01-10T08:39:11.889Z,1776
2019-01-10T08:40:12.855Z,1816
2019-01-10T08:41:16.094Z,1876
2019-01-10T08:42:15.504Z,1908
2019-01-10T08:43:16.195Z,1936
2019-01-10T08:44:17.088Z,1980
2019-01-10T08:45:24.016Z,2016
2019-01-10T08:45:29.657Z,2016
2019-01-10T08:46:30.012Z,2000
2019-01-10T08:47:33.650Z,1988
2019-01-10T08:48:31.895Z,1992
2019-01-10T08:49:32.585Z,2020
2019-01-10T08:50:33.002Z,2064
2019-01-10T08:51:34.256Z,2112
2019-01-10T08:52:36.465Z,2164
2019-01-10T08:53:37.916Z,2184
2019-01-10T08:54:38.176Z,2228
2019-01-10T08:55:39.349Z,2316
2019-01-10T08:56:40.548Z,2356
2019-01-10T08:57:41.237Z,2400
2019-01-10T08:58:42.483Z,2432
2019-01-10T08:59:43.458Z,2420
2019-01-10T09:00:43.709Z,2436
2019-01-10T09:01:44.407Z,2476
2019-01-10T09:02:44.656Z,2568
2019-01-10T09:03:44.625Z,2604
2019-01-10T09:04:45.597Z,2560
2019-01-10T09:05:46.564Z,2604
2019-01-10T09:06:47.385Z,2628
2019-01-10T09:07:48.078Z,2628
2019-01-10T09:08:48.772Z,2712
2019-01-10T09:09:49.465Z,2860
2019-01-10T09:10:49.883Z,2964
2019-01-10T09:11:51.105Z,2972
2019-01-10T09:12:51.802Z,2960
2019-01-10T09:13:52.218Z,2988
2019-01-10T09:14:53.978Z,3076
2019-01-10T09:15:54.944Z,3096
2019-01-10T09:16:55.208Z,3084
2019-01-10T09:17:56.184Z,3120
2019-01-10T09:18:57.158Z,3072
2019-01-10T09:19:57.576Z,3204
2019-01-10T09:21:11.017Z,3336
2019-01-10T09:22:12.208Z,3372
2019-01-10T09:23:12.678Z,3376
2019-01-10T09:24:12.817Z,3456
2019-01-10T09:25:14.061Z,3596
2019-01-10T09:26:15.033Z,3716
2019-01-10T09:27:15.446Z,3824
2019-01-10T09:28:16.583Z,3852
2019-01-10T09:29:17.996Z,3836
2019-01-10T09:30:18.408Z,3728
2019-01-10T09:31:19.659Z,3624
2019-01-10T09:32:20.314Z,3464
2019-01-10T09:33:21.060Z,3336
2019-01-10T09:34:26.974Z,3292
2019-01-10T09:34:33.786Z,3284
2019-01-10T09:35:34.606Z,3228
2019-01-10T09:36:35.022Z,3204
2019-01-10T09:37:35.754Z,3052
2019-01-10T09:38:36.724Z,3076
2019-01-10T09:39:37.692Z,3012
2019-01-10T09:40:38.381Z,2888
2019-01-10T09:41:38.797Z,2856
2019-01-10T09:42:40.817Z,2840
2019-01-10T09:43:41.063Z,2776
2019-01-10T09:44:41.313Z,2828
2019-01-10T09:45:45.193Z,2932
2019-01-10T09:46:45.653Z,3032
2019-01-10T09:47:46.342Z,3200
2019-01-10T09:48:47.034Z,3352
2019-01-10T09:49:47.174Z,3500
2019-01-10T09:50:48.583Z,3652
2019-01-10T09:51:49.000Z,3796
2019-01-10T09:52:50.802Z,3968
2019-01-10T09:53:50.773Z,4108
2019-01-10T09:54:51.191Z,4224
2019-01-10T09:55:52.018Z,4220
2019-01-10T09:56:52.191Z,4360
2019-01-10T09:57:53.887Z,4300
2019-01-10T09:58:53.863Z,4312
2019-01-10T09:59:55.627Z,4332
2019-01-10T10:00:56.597Z,4460
2019-01-10T10:01:56.762Z,4560
2019-01-10T10:02:58.119Z,4596
2019-01-10T10:03:58.820Z,4584
2019-01-10T10:05:01.674Z,4788
2019-01-10T10:06:11.832Z,4800
2019-01-10T10:07:12.694Z,5040
2019-01-10T10:08:13.937Z,5040
2019-01-10T10:09:15.033Z,5064
2019-01-10T10:10:15.789Z,4820
2019-01-10T10:11:16.757Z,4648
2019-01-10T10:12:17.448Z,4528
2019-01-10T10:13:17.862Z,4332
2019-01-10T10:14:19.274Z,4244
2019-01-10T10:15:20.267Z,4112
2019-01-10T10:16:20.763Z,3976
2019-01-10T10:17:21.971Z,3920
2019-01-10T10:18:22.194Z,3832
2019-01-10T10:19:22.887Z,3844
2019-01-10T10:20:24.584Z,3936
2019-01-10T10:21:24.551Z,3932
2019-01-10T10:22:25.977Z,3860
2019-01-10T10:23:28.747Z,3976
2019-01-10T10:24:28.880Z,3992
2019-01-10T10:25:29.896Z,4044
2019-01-10T10:26:30.311Z,4096
2019-01-10T10:27:31.414Z,4188
2019-01-10T10:28:31.832Z,4308
2019-01-10T10:29:32.525Z,4356
2019-01-10T10:30:33.497Z,4444
2019-01-10T10:31:34.471Z,4508
2019-01-10T10:32:34.882Z,4600
2019-01-10T10:33:36.299Z,4668
2019-01-10T10:34:37.010Z,4672
2019-01-10T10:35:38.453Z,5036
2019-01-10T10:36:38.871Z,5260
2019-01-10T10:37:39.693Z,5396
2019-01-10T10:38:40.117Z,5404
2019-01-10T10:39:40.529Z,5536
2019-01-10T10:40:41.956Z,5548
2019-01-10T10:41:42.367Z,5420
2019-01-10T10:42:42.783Z,5304
2019-01-10T10:43:43.486Z,5280
2019-01-10T10:44:44.193Z,5336
2019-01-10T10:45:44.604Z,5232
2019-01-10T10:46:44.839Z,5160
2019-01-10T10:47:45.387Z,5116
2019-01-10T10:48:46.642Z,5020
2019-01-10T10:49:46.057Z,5112
2019-01-10T10:50:47.472Z,5248
2019-01-10T10:51:47.611Z,5308
2019-01-10T10:52:49.579Z,5300
2019-01-10T10:53:50.102Z,5256
2019-01-10T10:54:50.153Z,5272
2019-01-10T10:55:50.647Z,5196
2019-01-10T10:56:51.781Z,5108
2019-01-10T10:57:52.070Z,5024
2019-01-10T10:58:53.482Z,4888
2019-01-10T10:59:54.454Z,4900
2019-01-10T11:00:54.870Z,4832
2019-01-10T11:01:55.562Z,4644
2019-01-10T11:02:56.544Z,4684
2019-01-10T11:03:56.787Z,4832
2019-01-10T11:04:58.757Z,5000
2019-01-10T11:05:59.453Z,5028
2019-01-10T11:07:00.139Z,5048
2019-01-10T11:08:01.518Z,4892
2019-01-10T11:09:13.062Z,4828
2019-01-10T11:10:13.333Z,4792
2019-01-10T11:11:13.772Z,4688
2019-01-10T11:12:14.744Z,4532
2019-01-10T11:13:15.438Z,4556
2019-01-10T11:14:15.853Z,4540
2019-01-10T11:15:16.991Z,4680
2019-01-10T11:16:17.585Z,4872
2019-01-10T11:17:18.405Z,5116
2019-01-10T11:18:19.749Z,5464
2019-01-10T11:19:20.853Z,5844
2019-01-10T11:20:20.722Z,6116
2019-01-10T11:21:22.933Z,6104
2019-01-10T11:22:23.564Z,6024
2019-01-10T11:23:24.676Z,6096
2019-01-10T11:24:24.580Z,6040
2019-01-10T11:25:25.977Z,5968
2019-01-10T11:26:26.585Z,6100
2019-01-10T11:27:27.500Z,6288
2019-01-10T11:28:28.147Z,6524
2019-01-10T11:29:28.699Z,6876
2019-01-10T11:30:30.193Z,7120
2019-01-10T11:31:30.609Z,7120
2019-01-10T11:32:31.298Z,7136
2019-01-10T11:33:32.551Z,6980
2019-01-10T11:34:33.524Z,6664
2019-01-10T11:35:34.225Z,6332
2019-01-10T11:36:34.640Z,6288
2019-01-10T11:37:35.986Z,6180
2019-01-10T11:38:36.400Z,5912
2019-01-10T11:39:37.093Z,5812
2019-01-10T11:40:37.356Z,5812
2019-01-10T11:41:38.350Z,5788
2019-01-10T11:42:38.770Z,5792
2019-01-10T11:43:39.187Z,5876
2019-01-10T11:44:39.601Z,5772
2019-01-10T11:45:41.575Z,5552
2019-01-10T11:46:42.297Z,5660
2019-01-10T11:47:42.998Z,5560
2019-01-10T11:48:43.730Z,5412
2019-01-10T11:49:44.700Z,5348
2019-01-10T11:50:44.901Z,5128
2019-01-10T11:51:46.038Z,4900
2019-01-10T11:52:46.960Z,4724
2019-01-10T11:53:47.096Z,4564
2019-01-10T11:54:50.464Z,4376
2019-01-10T11:55:48.874Z,4216
2019-01-10T11:56:50.294Z,4128
2019-01-10T11:57:50.529Z,4100
2019-01-10T11:58:50.956Z,4168
2019-01-10T11:59:51.650Z,4140
2019-01-10T12:00:52.297Z,4260
2019-01-10T12:01:58.924Z,4320
2019-01-10T12:02:06.409Z,4320
2019-01-10T12:03:11.838Z,4312
2019-01-10T12:03:19.741Z,4308
2019-01-10T12:04:19.366Z,4196
2019-01-10T12:05:19.503Z,4076
2019-01-10T12:06:19.931Z,4056
2019-01-10T12:07:20.899Z,3928
2019-01-10T12:08:21.313Z,3776
2019-01-10T12:09:21.731Z,3700
2019-01-10T12:10:22.981Z,3628
2019-01-10T12:11:24.231Z,3512
2019-01-10T12:12:24.199Z,3432
2019-01-10T12:13:28.179Z,3392
2019-01-10T12:13:36.364Z,3384
2019-01-10T12:14:37.858Z,3324
2019-01-10T12:15:37.834Z,3348
2019-01-10T12:16:38.702Z,3440
2019-01-10T12:17:39.694Z,3484
2019-01-10T12:18:40.634Z,3468
2019-01-10T12:19:41.668Z,3712
2019-01-10T12:20:42.364Z,4124
2019-01-10T12:21:43.235Z,4528
2019-01-10T12:22:43.594Z,4968
2019-01-10T12:23:44.570Z,5416
2019-01-10T12:24:45.300Z,5700
2019-01-10T12:25:45.615Z,5960
2019-01-10T12:26:46.029Z,6040
2019-01-10T12:27:46.449Z,5908
2019-01-10T12:28:46.861Z,5784
2019-01-10T12:29:48.278Z,5460
2019-01-10T12:30:48.414Z,5216
2019-01-10T12:31:49.109Z,4668
2019-01-10T12:32:50.357Z,4612
2019-01-10T12:33:50.776Z,4432
2019-01-10T12:34:52.190Z,4144
2019-01-10T12:35:52.606Z,4036
2019-01-10T12:37:04.776Z,3856
2019-01-10T12:38:05.622Z,3720
2019-01-10T12:39:06.317Z,3452
2019-01-10T12:40:07.287Z,3292
2019-01-10T12:41:07.258Z,3240
2019-01-10T12:42:10.507Z,3164
2019-01-10T12:43:09.363Z,3020
2019-01-10T12:44:13.290Z,3048
2019-01-10T12:45:12.226Z,3048
2019-01-10T12:46:12.871Z,3192
2019-01-10T12:47:12.282Z,3452
2019-01-10T12:48:15.521Z,3708
2019-01-10T12:49:15.900Z,3752
2019-01-10T12:50:17.040Z,3804
2019-01-10T12:51:18.209Z,3808
2019-01-10T12:52:19.625Z,3788
2019-01-10T12:53:20.042Z,3784
2019-01-10T12:54:23.560Z,3752
2019-01-10T12:55:22.110Z,3668
2019-01-10T12:56:21.534Z,3608
2019-01-10T12:57:21.948Z,3448
2019-01-10T12:58:22.775Z,3412
2019-01-10T12:59:23.302Z,3332
2019-01-10T13:00:24.548Z,3280
2019-01-10T13:01:26.116Z,3320
2019-01-10T13:02:25.899Z,3452
2019-01-10T13:03:26.873Z,3424
2019-01-10T13:04:27.560Z,3436
2019-01-10T13:05:28.977Z,3352
2019-01-10T13:06:29.948Z,3160
2019-01-10T13:07:30.919Z,3012
2019-01-10T13:08:31.506Z,2844
2019-01-10T13:09:35.190Z,2684
2019-01-10T13:10:33.136Z,2528
2019-01-10T13:11:35.213Z,2412
2019-01-10T13:12:36.100Z,2280
2019-01-10T13:13:34.979Z,2188
2019-01-10T13:14:35.394Z,2048
2019-01-10T13:15:35.807Z,1912
2019-01-10T13:16:46.415Z,1852
2019-01-10T13:16:49.246Z,1856
2019-01-10T13:17:54.217Z,1864
2019-01-10T13:18:54.264Z,1836
2019-01-10T13:19:52.962Z,1700
2019-01-10T13:20:53.647Z,1652
2019-01-10T13:21:54.341Z,1616
2019-01-10T13:22:54.477Z,1524
2019-01-10T13:23:56.449Z,1480
2019-01-10T13:24:56.861Z,1480
2019-01-10T13:26:01.146Z,1484
2019-01-10T13:27:04.779Z,1512
2019-01-10T13:28:03.494Z,1536
2019-01-10T13:29:04.627Z,1628
2019-01-10T13:30:05.765Z,1816
2019-01-10T13:31:06.905Z,1912
2019-01-10T13:32:07.313Z,2032
2019-01-10T13:33:08.728Z,2056
2019-01-10T13:34:13.485Z,1980
2019-01-10T13:34:24.469Z,1968
2019-01-10T13:35:22.178Z,1952
2019-01-10T13:36:21.869Z,1892
2019-01-10T13:37:22.006Z,1816
2019-01-10T13:38:22.420Z,1804
2019-01-10T13:39:22.833Z,1800
2019-01-10T13:40:24.533Z,1732
2019-01-10T13:41:24.947Z,1700
2019-01-10T13:42:25.651Z,1720
2019-01-10T13:43:26.991Z,1772
2019-01-10T13:44:28.686Z,1848
2019-01-10T13:45:32.394Z,1972
2019-01-10T13:46:30.043Z,2056
2019-01-10T13:47:31.180Z,2148
2019-01-10T13:48:31.875Z,2268
2019-01-10T13:49:32.287Z,2276
2019-01-10T13:50:33.208Z,2368
2019-01-10T13:51:35.876Z,2308
2019-01-10T13:52:35.031Z,2256
2019-01-10T13:53:35.443Z,2284
2019-01-10T13:54:35.856Z,2296
2019-01-10T13:55:37.033Z,2224
2019-01-10T13:56:37.446Z,2184
2019-01-10T13:57:37.862Z,2112
2019-01-10T13:58:38.599Z,2104
2019-01-10T13:59:40.292Z,1952
2019-01-10T14:00:40.260Z,1960
2019-01-10T14:01:40.676Z,1980
2019-01-10T14:02:42.653Z,2024
2019-01-10T14:03:43.070Z,1884
2019-01-10T14:04:43.207Z,1716
2019-01-10T14:05:44.026Z,1836